createdAt,value
2018-03-06T00:00:11.033Z,36.10
2018-03-06T00:02:39.368Z,37.70
2018-03-06T00:05:07.801Z,37.67
2018-03-06T00:07:36.139Z,35.23
2018-03-06T00:10:04.495Z,38.30
2018-03-06T00:12:32.845Z,36.10
2018-03-06T00:15:01.154Z,34.57
2018-03-06T00:17:29.491Z,35.17
2018-03-06T00:19:57.845Z,35.37
2018-03-06T00:22:26.191Z,38.63
2018-03-06T00:24:54.530Z,37.53
2018-03-06T00:27:22.865Z,34.93
2018-03-06T00:29:51.211Z,40.43
2018-03-06T00:32:19.594Z,34.20
2018-03-06T00:34:47.919Z,38.03
2018-03-06T00:37:16.258Z,38.20
2018-03-06T00:39:44.582Z,36.43
2018-03-06T00:42:12.966Z,37.90
2018-03-06T00:44:41.292Z,37.30
2018-03-06T00:47:09.638Z,39.87
2018-03-06T00:49:38.024Z,38.60
2018-03-06T00:52:06.353Z,37.97
2018-03-06T00:54:34.746Z,36.73
2018-03-06T00:57:03.069Z,35.27
2018-03-06T00:59:31.408Z,35.07
2018-03-06T01:01:59.732Z,37.47
2018-03-06T01:04:28.060Z,35.10
2018-03-06T01:06:56.381Z,34.43
2018-03-06T01:09:24.717Z,31.83
2018-03-06T01:11:53.064Z,35.43
2018-03-06T01:14:21.412Z,34.37
2018-03-06T01:16:49.709Z,33.73
2018-03-06T01:19:18.208Z,34.70
2018-03-06T01:21:46.567Z,32.97
2018-03-06T01:24:14.916Z,34.37
2018-03-06T01:26:43.241Z,34.23
2018-03-06T01:29:11.597Z,34.43
2018-03-06T01:31:39.934Z,32.27
2018-03-06T01:34:08.272Z,31.77
2018-03-06T01:36:36.691Z,32.13
2018-03-06T01:39:05.035Z,34.17
2018-03-06T01:41:33.348Z,31.77
2018-03-06T01:44:01.753Z,33.00
2018-03-06T01:46:30.072Z,32.90
2018-03-06T01:48:58.414Z,33.33
2018-03-06T01:51:26.737Z,32.97
2018-03-06T01:53:55.056Z,35.07
2018-03-06T01:56:23.381Z,32.83
2018-03-06T01:58:51.707Z,34.17
2018-03-06T02:01:20.162Z,32.50
2018-03-06T02:03:48.594Z,36.83
2018-03-06T02:06:17.003Z,36.47
2018-03-06T02:08:45.360Z,35.07
2018-03-06T02:11:13.680Z,32.47
2018-03-06T02:13:42.032Z,33.57
2018-03-06T02:16:10.368Z,34.80
2018-03-06T02:18:38.708Z,36.83
2018-03-06T02:21:07.064Z,36.17
2018-03-06T02:23:35.402Z,35.93
2018-03-06T02:26:03.729Z,33.97
2018-03-06T02:28:32.223Z,38.17
2018-03-06T02:31:00.578Z,37.40
2018-03-06T02:33:28.894Z,32.77
2018-03-06T02:35:57.230Z,34.03
2018-03-06T02:38:25.578Z,33.27
2018-03-06T02:40:53.929Z,35.33
2018-03-06T02:43:22.265Z,32.37
2018-03-06T02:45:54.234Z,36.47
2018-03-06T02:48:22.593Z,34.93
2018-03-06T02:50:50.938Z,34.00
2018-03-06T02:53:19.262Z,34.07
2018-03-06T02:55:47.689Z,36.30
2018-03-06T02:58:16.012Z,33.47
2018-03-06T03:00:44.368Z,35.73
2018-03-06T03:03:12.697Z,35.93
2018-03-06T03:05:41.057Z,35.73
2018-03-06T03:08:09.501Z,33.60
2018-03-06T03:10:37.840Z,31.97
2018-03-06T03:13:06.202Z,32.70
2018-03-06T03:15:34.551Z,32.90
2018-03-06T03:18:02.879Z,30.33
2018-03-06T03:20:31.234Z,35.77
2018-03-06T03:22:59.606Z,33.37
2018-03-06T03:25:27.995Z,36.03
2018-03-06T03:27:56.346Z,35.40
2018-03-06T03:30:24.697Z,35.67
2018-03-06T03:32:53.060Z,37.73
2018-03-06T03:35:21.450Z,38.80
2018-03-06T03:37:49.787Z,38.10
2018-03-06T03:40:18.143Z,38.80
2018-03-06T03:42:46.747Z,36.73
2018-03-06T03:45:15.065Z,38.73
2018-03-06T03:47:43.420Z,42.40
2018-03-06T03:50:11.742Z,41.27
2018-03-06T03:52:40.107Z,38.87
2018-03-06T03:55:08.429Z,41.80
2018-03-06T03:57:36.841Z,39.00
2018-03-06T04:00:05.231Z,42.93
2018-03-06T04:02:33.586Z,43.37
2018-03-06T04:05:01.988Z,42.23
2018-03-06T04:07:30.368Z,40.07
2018-03-06T04:09:58.748Z,40.60
2018-03-06T04:12:27.074Z,41.80
2018-03-06T04:14:55.412Z,40.57
2018-03-06T04:17:23.748Z,42.13
2018-03-06T04:19:52.180Z,47.00
2018-03-06T04:22:20.623Z,42.90
2018-03-06T04:24:48.983Z,44.50
2018-03-06T04:27:17.466Z,43.13
2018-03-06T04:29:45.891Z,42.63
2018-03-06T04:32:14.285Z,43.67
2018-03-06T04:34:42.789Z,45.00
2018-03-06T04:37:11.192Z,43.57
2018-03-06T04:39:39.526Z,42.67
2018-03-06T04:42:07.869Z,42.67
2018-03-06T04:44:36.255Z,42.77
2018-03-06T04:47:04.585Z,40.50
2018-03-06T04:49:32.902Z,41.90
2018-03-06T04:52:01.325Z,43.17
2018-03-06T04:54:29.648Z,42.40
2018-03-06T04:56:58.015Z,42.57
2018-03-06T04:59:26.335Z,43.40
2018-03-06T05:01:54.663Z,41.93
2018-03-06T05:04:22.985Z,36.17
2018-03-06T05:06:51.643Z,38.57
2018-03-06T05:09:20.732Z,38.33
2018-03-06T05:11:49.049Z,41.13
2018-03-06T05:14:17.393Z,38.40
2018-03-06T05:16:45.808Z,42.33
2018-03-06T05:19:14.148Z,39.27
2018-03-06T05:21:42.589Z,38.03
2018-03-06T05:24:11.091Z,41.67
2018-03-06T05:26:39.527Z,40.47
2018-03-06T05:29:07.878Z,41.57
2018-03-06T05:31:39.829Z,39.53
2018-03-06T05:34:08.142Z,42.17
2018-03-06T05:36:36.474Z,41.00
2018-03-06T05:39:04.831Z,40.23
2018-03-06T05:41:33.266Z,39.60
2018-03-06T05:44:01.658Z,41.63
2018-03-06T05:46:30.038Z,38.43
2018-03-06T05:48:58.539Z,42.67
2018-03-06T05:51:26.862Z,38.50
2018-03-06T05:53:55.243Z,38.87
2018-03-06T05:56:23.571Z,42.23
2018-03-06T05:58:52.015Z,42.17
2018-03-06T06:01:20.341Z,43.57
2018-03-06T06:03:48.673Z,39.50
2018-03-06T06:06:17.010Z,41.00
2018-03-06T06:08:45.340Z,40.27
2018-03-06T06:11:13.671Z,39.67
2018-03-06T06:13:42.034Z,39.93
2018-03-06T06:16:10.401Z,42.80
2018-03-06T06:18:38.751Z,44.17
2018-03-06T06:21:07.097Z,43.13
2018-03-06T06:23:35.455Z,43.67
2018-03-06T06:26:03.772Z,38.57
2018-03-06T06:28:32.210Z,39.50
2018-03-06T06:31:00.606Z,40.00
2018-03-06T06:33:28.998Z,42.33
2018-03-06T06:35:57.314Z,41.23
2018-03-06T06:38:25.679Z,39.80
2018-03-06T06:40:54.018Z,42.93
2018-03-06T06:43:22.329Z,38.27
2018-03-06T06:45:50.710Z,39.23
2018-03-06T06:48:19.035Z,38.23
2018-03-06T06:50:47.433Z,41.87
2018-03-06T06:53:15.757Z,33.93
2018-03-06T06:55:44.118Z,41.53
2018-03-06T06:58:12.434Z,38.53
2018-03-06T07:00:40.756Z,39.13
2018-03-06T07:03:09.202Z,35.63
2018-03-06T07:05:37.537Z,39.23
2018-03-06T07:08:05.860Z,38.77
2018-03-06T07:10:34.206Z,39.03
2018-03-06T07:13:02.565Z,36.63
2018-03-06T07:15:30.954Z,35.00
2018-03-06T07:17:59.270Z,36.17
2018-03-06T07:20:27.639Z,37.00
2018-03-06T07:22:56.048Z,35.60
2018-03-06T07:25:24.423Z,36.43
2018-03-06T07:27:52.829Z,37.80
2018-03-06T07:30:21.169Z,37.33
2018-03-06T07:32:49.474Z,35.23
2018-03-06T07:35:17.835Z,34.27
2018-03-06T07:37:46.194Z,37.23
2018-03-06T07:40:14.566Z,39.17
2018-03-06T07:42:42.896Z,36.97
2018-03-06T07:45:11.221Z,37.43
2018-03-06T07:47:39.584Z,32.97
2018-03-06T07:50:08.084Z,34.77
2018-03-06T07:52:36.495Z,34.83
2018-03-06T07:55:04.814Z,36.50
2018-03-06T07:57:33.142Z,35.53
2018-03-06T08:00:01.469Z,33.73
2018-03-06T08:02:29.852Z,33.30
2018-03-06T08:04:58.176Z,33.50
2018-03-06T08:07:26.505Z,33.60
2018-03-06T08:09:54.878Z,34.87
2018-03-06T08:12:23.200Z,34.47
2018-03-06T08:14:51.752Z,34.00
2018-03-06T08:17:20.094Z,33.43
2018-03-06T08:19:48.409Z,33.57
2018-03-06T08:22:16.060Z,33.77
2018-03-06T08:24:44.141Z,33.10
2018-03-06T08:27:12.578Z,35.90
2018-03-06T08:29:40.906Z,33.57
2018-03-06T08:32:09.276Z,32.10
2018-03-06T08:34:37.658Z,36.47
2018-03-06T08:37:05.981Z,32.40
2018-03-06T08:39:34.318Z,32.63
2018-03-06T08:42:02.638Z,32.70
2018-03-06T08:44:30.982Z,33.03
2018-03-06T08:46:59.301Z,32.77
2018-03-06T08:49:27.652Z,33.43
2018-03-06T08:51:55.961Z,30.17
2018-03-06T08:54:24.295Z,31.73
2018-03-06T08:56:52.627Z,31.50
2018-03-06T08:59:21.075Z,31.40
2018-03-06T09:01:49.386Z,30.37
2018-03-06T09:04:17.865Z,30.80
2018-03-06T09:06:46.293Z,28.30
2018-03-06T09:09:14.624Z,28.97
2018-03-06T09:11:42.953Z,30.67
2018-03-06T09:14:11.284Z,32.23
2018-03-06T09:16:39.609Z,28.53
2018-03-06T09:19:07.953Z,29.37
2018-03-06T09:21:36.287Z,29.37
2018-03-06T09:24:04.618Z,28.07
2018-03-06T09:26:32.937Z,28.30
2018-03-06T09:29:01.279Z,30.07
2018-03-06T09:31:29.594Z,27.10
2018-03-06T09:33:58.049Z,30.73
2018-03-06T09:36:26.398Z,28.30
2018-03-06T09:38:54.705Z,29.63
2018-03-06T09:41:23.046Z,31.67
2018-03-06T09:43:51.563Z,29.73
2018-03-06T09:46:19.913Z,29.33
2018-03-06T09:48:48.250Z,27.63
2018-03-06T09:51:16.591Z,29.73
2018-03-06T09:53:44.922Z,27.23
2018-03-06T09:56:13.245Z,27.80
2018-03-06T09:58:41.753Z,28.00
2018-03-06T10:01:10.173Z,28.83
2018-03-06T10:03:38.516Z,26.43
2018-03-06T10:06:06.923Z,28.20
2018-03-06T10:08:35.268Z,29.90
2018-03-06T10:11:03.622Z,27.13
2018-03-06T10:13:31.936Z,28.67
2018-03-06T10:16:00.271Z,27.70
2018-03-06T10:18:28.595Z,27.40
2018-03-06T10:20:57.006Z,27.10
2018-03-06T10:23:25.381Z,24.13
2018-03-06T10:25:53.739Z,24.13
2018-03-06T10:28:22.074Z,25.83
2018-03-06T10:30:51.038Z,26.57
2018-03-06T10:33:19.383Z,26.33
2018-03-06T10:35:47.764Z,27.63
2018-03-06T10:38:16.377Z,25.00
2018-03-06T10:40:44.710Z,24.90
2018-03-06T10:43:13.052Z,26.10
2018-03-06T10:45:41.378Z,29.13
2018-03-06T10:48:09.823Z,25.90
2018-03-06T10:50:38.142Z,27.10
2018-03-06T10:53:06.471Z,27.50
2018-03-06T10:55:34.899Z,24.90
2018-03-06T10:58:03.431Z,26.17
2018-03-06T11:00:37.495Z,25.93
2018-03-06T11:03:05.834Z,25.83
2018-03-06T11:05:34.162Z,23.77
2018-03-06T11:08:02.499Z,25.80
2018-03-06T11:10:30.828Z,25.00
2018-03-06T11:12:59.173Z,25.43
2018-03-06T11:15:27.575Z,24.90
2018-03-06T11:17:55.932Z,24.77
2018-03-06T11:20:24.250Z,23.33
2018-03-06T11:22:52.642Z,25.77
2018-03-06T11:25:20.960Z,23.87
2018-03-06T11:27:49.315Z,24.10
2018-03-06T11:30:17.910Z,24.77
2018-03-06T11:32:46.285Z,24.10
2018-03-06T11:35:14.614Z,25.10
2018-03-06T11:37:43.027Z,24.47
2018-03-06T11:40:11.346Z,23.57
2018-03-06T11:42:39.729Z,22.83
2018-03-06T11:45:08.179Z,22.43
2018-03-06T11:47:36.535Z,23.63
2018-03-06T11:50:05.014Z,23.83
2018-03-06T11:52:33.370Z,21.77
2018-03-06T11:55:01.742Z,23.63
2018-03-06T11:57:30.079Z,24.37
2018-03-06T11:59:58.419Z,23.70
2018-03-06T12:02:26.745Z,25.07
2018-03-06T12:04:55.089Z,23.60
2018-03-06T12:07:23.501Z,22.47
2018-03-06T12:09:51.901Z,22.73
2018-03-06T12:12:20.310Z,21.97
2018-03-06T12:14:48.671Z,21.77
2018-03-06T12:17:16.999Z,23.43
2018-03-06T12:19:45.335Z,22.10
2018-03-06T12:22:13.664Z,23.63
2018-03-06T12:24:42.010Z,24.17
2018-03-06T12:27:10.330Z,25.23
2018-03-06T12:29:38.685Z,21.60
2018-03-06T12:32:07.147Z,23.70
2018-03-06T12:34:35.515Z,21.63
2018-03-06T12:37:03.842Z,24.20
2018-03-06T12:39:32.210Z,23.43
2018-03-06T12:42:01.910Z,21.67
2018-03-06T12:44:30.236Z,21.17
2018-03-06T12:46:58.597Z,23.83
2018-03-06T12:49:26.938Z,23.30
2018-03-06T12:51:55.295Z,24.53
2018-03-06T12:54:23.637Z,24.37
2018-03-06T12:56:52.317Z,25.13
2018-03-06T12:59:20.670Z,22.73
2018-03-06T13:01:49.167Z,24.17
2018-03-06T13:04:17.479Z,23.53
2018-03-06T13:06:45.815Z,23.90
2018-03-06T13:09:14.146Z,23.40
2018-03-06T13:11:42.492Z,25.07
2018-03-06T13:14:10.803Z,21.90
2018-03-06T13:16:39.198Z,24.10
2018-03-06T13:19:07.514Z,25.80
2018-03-06T13:21:36.042Z,25.30
2018-03-06T13:24:04.366Z,25.10
2018-03-06T13:26:32.774Z,23.07
2018-03-06T13:29:01.092Z,24.77
2018-03-06T13:31:29.424Z,25.23
2018-03-06T13:33:58.078Z,24.00
2018-03-06T13:36:26.410Z,23.87
2018-03-06T13:38:54.777Z,26.20
2018-03-06T13:41:23.157Z,25.83
2018-03-06T13:43:51.494Z,23.73
2018-03-06T13:46:19.830Z,23.63
2018-03-06T13:48:48.302Z,24.33
2018-03-06T13:51:16.622Z,22.60
2018-03-06T13:53:44.999Z,25.17
2018-03-06T13:56:13.353Z,26.73
2018-03-06T13:58:41.701Z,24.57
2018-03-06T14:01:10.036Z,24.37
2018-03-06T14:03:38.363Z,24.40
2018-03-06T14:06:06.780Z,23.07
2018-03-06T14:08:35.116Z,23.50
2018-03-06T14:11:03.439Z,25.17
2018-03-06T14:13:31.785Z,23.83
2018-03-06T14:16:00.099Z,24.87
2018-03-06T14:18:28.516Z,22.83
2018-03-06T14:20:56.830Z,22.90
2018-03-06T14:23:25.174Z,24.07
2018-03-06T14:25:53.602Z,23.53
2018-03-06T14:28:21.949Z,21.57
2018-03-06T14:30:50.266Z,25.93
2018-03-06T14:33:18.632Z,24.57
2018-03-06T14:35:46.980Z,23.43
2018-03-06T14:38:15.323Z,24.13
2018-03-06T14:40:43.704Z,24.13
2018-03-06T14:43:12.153Z,25.27
2018-03-06T14:45:40.488Z,23.20
2018-03-06T14:48:08.808Z,22.83
2018-03-06T14:50:37.220Z,21.77
2018-03-06T14:53:05.535Z,23.10
2018-03-06T14:55:33.908Z,24.07
2018-03-06T14:58:02.286Z,24.30
2018-03-06T15:00:30.621Z,24.50
2018-03-06T15:02:58.953Z,25.97
2018-03-06T15:05:27.309Z,23.77
2018-03-06T15:07:55.769Z,25.23
2018-03-06T15:10:24.149Z,21.53
2018-03-06T15:12:52.490Z,23.90
2018-03-06T15:15:20.934Z,25.10
2018-03-06T15:17:49.318Z,22.80
2018-03-06T15:20:17.655Z,22.83
2018-03-06T15:22:45.990Z,22.50
2018-03-06T15:25:14.335Z,25.27
2018-03-06T15:27:42.668Z,26.37
2018-03-06T15:30:11.010Z,28.47
2018-03-06T15:32:39.351Z,28.77
2018-03-06T15:35:07.736Z,30.47
2018-03-06T15:37:36.070Z,32.73
2018-03-06T15:40:04.414Z,32.77
2018-03-06T15:42:32.749Z,35.80
2018-03-06T15:45:01.096Z,36.37
2018-03-06T15:47:29.434Z,39.17
2018-03-06T15:49:57.768Z,37.97
2018-03-06T15:52:26.263Z,39.27
2018-03-06T15:54:54.606Z,39.67
2018-03-06T15:57:23.016Z,39.87
2018-03-06T15:59:51.416Z,39.43
2018-03-06T16:02:19.782Z,37.97
2018-03-06T16:04:48.126Z,38.43
2018-03-06T16:07:16.544Z,38.37
2018-03-06T16:09:44.954Z,38.23
2018-03-06T16:12:13.626Z,38.67
2018-03-06T16:14:41.997Z,40.90
2018-03-06T16:17:10.398Z,42.60
2018-03-06T16:19:38.749Z,43.77
2018-03-06T16:22:07.130Z,44.67
2018-03-06T16:24:35.568Z,43.07
2018-03-06T16:27:03.940Z,43.27
2018-03-06T16:29:32.356Z,42.83
2018-03-06T16:32:00.899Z,44.57
2018-03-06T16:34:29.234Z,43.93
2018-03-06T16:36:57.562Z,43.90
2018-03-06T16:39:25.890Z,46.40
2018-03-06T16:41:54.218Z,43.37
2018-03-06T16:44:22.558Z,42.77
2018-03-06T16:46:50.888Z,45.87
2018-03-06T16:49:19.306Z,45.10
2018-03-06T16:51:47.589Z,44.77
2018-03-06T16:54:15.915Z,46.07
2018-03-06T16:56:44.309Z,44.03
2018-03-06T16:59:12.668Z,44.03
2018-03-06T17:01:48.861Z,43.23
2018-03-06T17:04:17.277Z,40.80
2018-03-06T17:06:45.600Z,43.80
2018-03-06T17:09:13.934Z,42.83
2018-03-06T17:11:42.366Z,44.97
2018-03-06T17:14:11.486Z,40.30
2018-03-06T17:16:39.845Z,41.57
2018-03-06T17:19:08.184Z,39.60
2018-03-06T17:21:36.501Z,39.67
2018-03-06T17:24:04.833Z,37.47
2018-03-06T17:26:33.162Z,40.17
2018-03-06T17:29:01.506Z,37.10
2018-03-06T17:31:29.909Z,35.73
2018-03-06T17:33:58.454Z,37.83
2018-03-06T17:36:26.775Z,37.63
2018-03-06T17:38:55.136Z,38.97
2018-03-06T17:41:23.479Z,37.87
2018-03-06T17:43:51.891Z,36.40
2018-03-06T17:46:20.259Z,37.23
2018-03-06T17:48:48.589Z,38.43
2018-03-06T17:51:16.941Z,38.67
2018-03-06T17:53:45.324Z,39.57
2018-03-06T17:56:13.712Z,36.67
2018-03-06T17:58:41.994Z,37.17
2018-03-06T18:01:10.404Z,36.10
2018-03-06T18:03:38.793Z,38.20
2018-03-06T18:06:07.202Z,38.70
2018-03-06T18:08:35.526Z,39.63
2018-03-06T18:11:03.878Z,37.50
2018-03-06T18:13:32.230Z,38.50
2018-03-06T18:16:00.562Z,39.90
2018-03-06T18:18:28.882Z,37.80
2018-03-06T18:20:57.251Z,39.57
2018-03-06T18:23:25.568Z,36.30
2018-03-06T18:25:53.906Z,39.83
2018-03-06T18:28:22.268Z,37.60
2018-03-06T18:30:50.622Z,38.80
2018-03-06T18:33:18.946Z,42.27
2018-03-06T18:35:47.370Z,42.90
2018-03-06T18:38:15.786Z,41.87
2018-03-06T18:40:44.129Z,44.73
2018-03-06T18:43:12.549Z,44.23
2018-03-06T18:45:40.954Z,43.73
2018-03-06T18:48:09.279Z,46.20
2018-03-06T18:50:51.207Z,45.43
2018-03-06T18:53:19.513Z,43.83
2018-03-06T18:55:47.835Z,40.57
2018-03-06T18:58:16.547Z,39.10
2018-03-06T19:01:05.529Z,39.70
2018-03-06T19:03:45.734Z,44.77
2018-03-06T19:06:24.004Z,40.20
2018-03-06T19:08:52.338Z,38.37
2018-03-06T19:11:20.752Z,35.30
2018-03-06T19:13:49.039Z,35.80
2018-03-06T19:16:17.521Z,32.07
2018-03-06T19:18:45.851Z,34.13
2018-03-06T19:21:14.266Z,37.23
2018-03-06T19:23:42.656Z,38.13
2018-03-06T19:26:10.985Z,38.23
2018-03-06T19:28:39.318Z,41.00
2018-03-06T19:31:07.634Z,40.07
2018-03-06T19:33:36.017Z,40.37
2018-03-06T19:36:04.343Z,41.13
2018-03-06T19:38:32.712Z,41.63
2018-03-06T19:41:01.068Z,41.50
2018-03-06T19:43:29.428Z,39.13
2018-03-06T19:45:57.775Z,40.83
2018-03-06T19:48:26.169Z,43.23
2018-03-06T19:50:54.516Z,42.60
2018-03-06T19:53:22.843Z,40.33
2018-03-06T19:55:51.244Z,42.17
2018-03-06T19:58:19.556Z,41.97
2018-03-06T20:00:48.125Z,43.63
2018-03-06T20:03:16.561Z,42.30
2018-03-06T20:05:45.045Z,43.87
2018-03-06T20:08:13.578Z,42.50
2018-03-06T20:10:42.005Z,41.83
2018-03-06T20:13:10.404Z,44.40
2018-03-06T20:15:38.806Z,47.07
2018-03-06T20:18:07.179Z,40.67
2018-03-06T20:20:35.583Z,46.40
2018-03-06T20:23:03.957Z,48.50
2018-03-06T20:25:37.792Z,47.67
2018-03-06T20:28:06.118Z,43.07
2018-03-06T20:33:40.631Z,44.70
2018-03-06T20:36:08.962Z,43.87
2018-03-06T20:38:42.866Z,42.17
2018-03-06T20:41:11.202Z,44.57
2018-03-06T20:43:39.513Z,41.20
2018-03-06T20:46:13.581Z,45.60
2018-03-06T20:48:42.429Z,43.00
2018-03-06T20:51:10.747Z,41.67
2018-03-06T20:53:44.485Z,41.77
2018-03-06T20:56:12.825Z,40.07
2018-03-06T20:58:41.180Z,42.93
2018-03-06T21:01:09.501Z,42.07
2018-03-06T21:03:37.834Z,41.60
2018-03-06T21:06:06.173Z,43.73
2018-03-06T21:08:34.595Z,43.73
2018-03-06T21:11:02.898Z,43.47
2018-03-06T21:13:31.274Z,43.73
2018-03-06T21:16:00.050Z,46.07
2018-03-06T21:18:28.397Z,45.80
2018-03-06T21:20:56.815Z,45.43
2018-03-06T21:23:25.165Z,42.73
2018-03-06T21:25:53.480Z,44.37
2018-03-06T21:28:21.821Z,42.07
2018-03-06T21:30:50.245Z,43.43
2018-03-06T21:33:18.649Z,44.87
2018-03-06T21:35:47.058Z,44.50
2018-03-06T21:38:15.372Z,42.67
2018-03-06T21:40:43.766Z,46.17
2018-03-06T21:43:12.244Z,41.73
2018-03-06T21:45:40.565Z,43.03
2018-03-06T21:48:09.078Z,44.23
2018-03-06T21:50:37.395Z,40.97
2018-03-06T21:53:05.886Z,46.37
2018-03-06T21:55:34.221Z,40.90
2018-03-06T21:58:02.531Z,39.03
2018-03-06T22:00:30.875Z,41.50
2018-03-06T22:02:59.258Z,43.77
2018-03-06T22:05:27.647Z,41.27
2018-03-06T22:07:56.041Z,41.60
2018-03-06T22:10:24.419Z,42.33
2018-03-06T22:12:52.693Z,43.30
2018-03-06T22:15:21.114Z,44.37
2018-03-06T22:17:49.490Z,42.23
2018-03-06T22:20:17.849Z,40.13
2018-03-06T22:22:46.171Z,39.17
2018-03-06T22:25:14.579Z,40.37
2018-03-06T22:27:42.908Z,41.87
2018-03-06T22:30:11.238Z,39.07
2018-03-06T22:32:39.563Z,41.13
2018-03-06T22:35:07.897Z,41.53
2018-03-06T22:37:36.240Z,40.50
2018-03-06T22:40:04.671Z,36.20
2018-03-06T22:42:32.968Z,35.77
2018-03-06T22:45:01.351Z,37.03
2018-03-06T22:47:29.845Z,37.87
2018-03-06T22:49:58.238Z,35.63
2018-03-06T22:52:26.562Z,36.90
2018-03-06T22:54:54.880Z,38.13
2018-03-06T22:57:23.215Z,35.53
2018-03-06T22:59:51.529Z,38.33
2018-03-06T23:02:19.870Z,37.43
2018-03-06T23:04:48.167Z,36.73
2018-03-06T23:07:16.529Z,35.67
2018-03-06T23:09:44.862Z,36.87
2018-03-06T23:12:13.212Z,37.53
2018-03-06T23:14:41.605Z,36.83
2018-03-06T23:17:09.936Z,34.53
2018-03-06T23:19:38.299Z,37.37
2018-03-06T23:22:06.642Z,37.30
2018-03-06T23:24:34.954Z,37.40
2018-03-06T23:27:03.378Z,37.77
2018-03-06T23:29:31.707Z,35.47
2018-03-06T23:32:00.048Z,38.00
2018-03-06T23:34:28.468Z,36.87
2018-03-06T23:36:56.794Z,38.23
2018-03-06T23:39:25.111Z,35.70
2018-03-06T23:41:53.446Z,39.43
2018-03-06T23:44:21.802Z,41.67
2018-03-06T23:46:50.751Z,39.90
2018-03-06T23:49:19.109Z,38.70
2018-03-06T23:51:47.441Z,39.93
2018-03-06T23:54:15.791Z,37.73
2018-03-06T23:56:44.110Z,37.57
2018-03-06T23:59:12.443Z,35.47
